sensor_id;sensor_type;location;lat;lon;timestamp;temperature;humidity
22139;DHT22;25815;52.582;13.408;2023-04-21T01:17:26;9.70;99.90
22139;DHT22;25815;52.582;13.408;2023-04-21T01:19:55;9.70;99.90
22139;DHT22;25815;52.582;13.408;2023-04-21T01:29:41;9.60;99.90
22139;DHT22;25815;52.582;13.408;2023-04-21T01:32:10;9.60;99.90
22139;DHT22;25815;52.582;13.408;2023-04-21T01:34:36;9.60;99.90
22139;DHT22;25815;52.582;13.408;2023-04-21T01:37:02;9.50;99.90
22139;DHT22;25815;52.582;13.408;2023-04-21T01:39:28;9.50;99.90
22139;DHT22;25815;52.582;13.408;2023-04-21T01:41:55;9.50;99.90
22139;DHT22;25815;52.582;13.408;2023-04-21T01:44:22;9.40;99.90
22139;DHT22;25815;52.582;13.408;2023-04-21T01:46:48;9.40;99.90
22139;DHT22;25815;52.582;13.408;2023-04-21T01:49:13;9.40;99.90
22139;DHT22;25815;52.582;13.408;2023-04-21T01:51:39;9.40;99.90
22139;DHT22;25815;52.582;13.408;2023-04-21T01:54:04;9.50;99.90
22139;DHT22;25815;52.582;13.408;2023-04-21T01:56:30;9.50;99.90
22139;DHT22;25815;52.582;13.408;2023-04-21T01:58:55;9.50;99.90
22139;DHT22;25815;52.582;13.408;2023-04-21T02:01:21;9.50;99.90
22139;DHT22;25815;52.582;13.408;2023-04-21T02:03:46;9.50;99.90
22139;DHT22;25815;52.582;13.408;2023-04-21T02:06:12;9.40;99.90
22139;DHT22;25815;52.582;13.408;2023-04-21T02:08:38;9.30;99.90
22139;DHT22;25815;52.582;13.408;2023-04-21T02:11:03;9.50;99.90
22139;DHT22;25815;52.582;13.408;2023-04-21T05:40:38;10.40;99.90
22139;DHT22;25815;52.582;13.408;2023-04-21T05:43:03;10.10;99.90
22139;DHT22;25815;52.582;13.408;2023-04-21T05:45:28;10.10;99.90
22139;DHT22;25815;52.582;13.408;2023-04-21T05:47:54;10.20;99.90
22139;DHT22;25815;52.582;13.408;2023-04-21T05:50:20;10.20;99.90
22139;DHT22;25815;52.582;13.408;2023-04-21T05:52:45;10.30;99.90
22139;DHT22;25815;52.582;13.408;2023-04-21T05:55:11;9.80;99.90
22139;DHT22;25815;52.582;13.408;2023-04-21T05:57:37;10.40;99.90
22139;DHT22;25815;52.582;13.408;2023-04-21T06:00:02;10.50;99.90
22139;DHT22;25815;52.582;13.408;2023-04-21T06:02:28;10.50;99.90
22139;DHT22;25815;52.582;13.408;2023-04-21T06:04:54;10.60;99.90
22139;DHT22;25815;52.582;13.408;2023-04-21T06:07:19;10.80;99.90
22139;DHT22;25815;52.582;13.408;2023-04-21T06:09:49;10.80;99.90
22139;DHT22;25815;52.582;13.408;2023-04-21T06:12:15;11.00;99.90
22139;DHT22;25815;52.582;13.408;2023-04-21T06:14:40;10.90;99.90
22139;DHT22;25815;52.582;13.408;2023-04-21T06:17:06;11.10;99.90
22139;DHT22;25815;52.582;13.408;2023-04-21T06:19:36;11.20;99.90
22139;DHT22;25815;52.582;13.408;2023-04-21T06:22:02;11.30;99.90
22139;DHT22;25815;52.582;13.408;2023-04-21T06:24:31;11.30;99.90
22139;DHT22;25815;52.582;13.408;2023-04-21T07:03:26;12.70;99.90
22139;DHT22;25815;52.582;13.408;2023-04-21T07:05:51;12.70;99.90
22139;DHT22;25815;52.582;13.408;2023-04-21T07:08:17;12.70;99.90
22139;DHT22;25815;52.582;13.408;2023-04-21T07:10:42;12.70;99.90
22139;DHT22;25815;52.582;13.408;2023-04-21T07:13:08;12.90;99.90
22139;DHT22;25815;52.582;13.408;2023-04-21T07:15:33;12.90;99.90
22139;DHT22;25815;52.582;13.408;2023-04-21T07:17:59;12.90;99.90
22139;DHT22;25815;52.582;13.408;2023-04-21T07:20:25;13.00;99.90
22139;DHT22;25815;52.582;13.408;2023-04-21T07:22:50;13.00;99.90
22139;DHT22;25815;52.582;13.408;2023-04-21T07:25:16;13.10;99.90
22139;DHT22;25815;52.582;13.408;2023-04-21T07:27:41;13.20;99.90
22139;DHT22;25815;52.582;13.408;2023-04-21T07:30:07;13.30;99.90
22139;DHT22;25815;52.582;13.408;2023-04-21T07:32:33;13.30;99.90
22139;DHT22;25815;52.582;13.408;2023-04-21T07:34:59;13.40;99.90
22139;DHT22;25815;52.582;13.408;2023-04-21T07:37:26;13.50;99.90
22139;DHT22;25815;52.582;13.408;2023-04-21T07:39:51;13.50;99.90
22139;DHT22;25815;52.582;13.408;2023-04-21T07:42:17;13.60;99.90
22139;DHT22;25815;52.582;13.408;2023-04-21T07:44:43;13.70;99.90
22139;DHT22;25815;52.582;13.408;2023-04-21T07:47:08;13.70;99.90
22139;DHT22;25815;52.582;13.408;2023-04-21T07:49:34;13.80;99.90
22139;DHT22;25815;52.582;13.408;2023-04-21T07:51:59;13.80;99.90
22139;DHT22;25815;52.582;13.408;2023-04-21T07:54:25;13.90;99.90
22139;DHT22;25815;52.582;13.408;2023-04-21T07:56:50;13.90;99.90
22139;DHT22;25815;52.582;13.408;2023-04-21T07:59:15;14.00;99.90
22139;DHT22;25815;52.582;13.408;2023-04-21T08:01:41;14.00;99.90
22139;DHT22;25815;52.582;13.408;2023-04-21T08:04:06;14.00;99.90
22139;DHT22;25815;52.582;13.408;2023-04-21T08:06:32;14.10;99.90
22139;DHT22;25815;52.582;13.408;2023-04-21T08:08:58;14.20;99.90
22139;DHT22;25815;52.582;13.408;2023-04-21T08:11:23;14.20;99.90
22139;DHT22;25815;52.582;13.408;2023-04-21T08:13:49;14.20;99.90
22139;DHT22;25815;52.582;13.408;2023-04-21T08:16:14;14.30;99.90
22139;DHT22;25815;52.582;13.408;2023-04-21T08:18:40;14.30;99.90
22139;DHT22;25815;52.582;13.408;2023-04-21T08:21:06;14.40;99.90
22139;DHT22;25815;52.582;13.408;2023-04-21T08:23:31;14.50;99.90
22139;DHT22;25815;52.582;13.408;2023-04-21T08:25:56;14.60;99.90
22139;DHT22;25815;52.582;13.408;2023-04-21T08:28:22;14.70;99.90
22139;DHT22;25815;52.582;13.408;2023-04-21T08:30:48;14.80;99.90
22139;DHT22;25815;52.582;13.408;2023-04-21T08:33:13;14.80;99.90
22139;DHT22;25815;52.582;13.408;2023-04-21T08:35:39;14.90;99.90
22139;DHT22;25815;52.582;13.408;2023-04-21T08:38:06;14.90;99.90
22139;DHT22;25815;52.582;13.408;2023-04-21T08:40:37;15.00;99.90
22139;DHT22;25815;52.582;13.408;2023-04-21T08:43:07;15.10;99.90
22139;DHT22;25815;52.582;13.408;2023-04-21T08:45:33;15.20;99.90
22139;DHT22;25815;52.582;13.408;2023-04-21T08:47:59;15.30;99.90
22139;DHT22;25815;52.582;13.408;2023-04-21T08:50:28;15.40;99.90
22139;DHT22;25815;52.582;13.408;2023-04-21T08:52:54;15.40;99.90
22139;DHT22;25815;52.582;13.408;2023-04-21T08:55:25;15.50;99.90
22139;DHT22;25815;52.582;13.408;2023-04-21T08:57:51;15.50;99.90
22139;DHT22;25815;52.582;13.408;2023-04-21T09:00:16;15.60;99.90
22139;DHT22;25815;52.582;13.408;2023-04-21T09:02:53;15.70;99.90
22139;DHT22;25815;52.582;13.408;2023-04-21T09:05:23;15.80;99.90
22139;DHT22;25815;52.582;13.408;2023-04-21T09:07:50;15.80;99.90
22139;DHT22;25815;52.582;13.408;2023-04-21T09:10:21;15.90;99.90
22139;DHT22;25815;52.582;13.408;2023-04-21T09:12:50;16.00;99.90
22139;DHT22;25815;52.582;13.408;2023-04-21T09:15:19;16.10;99.90
22139;DHT22;25815;52.582;13.408;2023-04-21T09:17:45;16.20;99.90
22139;DHT22;25815;52.582;13.408;2023-04-21T09:22:41;16.30;99.90
22139;DHT22;25815;52.582;13.408;2023-04-21T09:25:07;16.40;99.90
22139;DHT22;25815;52.582;13.408;2023-04-21T09:27:36;16.40;99.90
22139;DHT22;25815;52.582;13.408;2023-04-21T09:30:03;16.50;99.90
22139;DHT22;25815;52.582;13.408;2023-04-21T09:32:35;16.50;99.90
22139;DHT22;25815;52.582;13.408;2023-04-21T09:35:02;16.50;99.90
22139;DHT22;25815;52.582;13.408;2023-04-21T09:37:31;16.60;99.90
22139;DHT22;25815;52.582;13.408;2023-04-21T09:39:58;16.60;99.90
22139;DHT22;25815;52.582;13.408;2023-04-21T09:42:31;16.60;99.90
22139;DHT22;25815;52.582;13.408;2023-04-21T09:44:57;16.80;99.90
22139;DHT22;25815;52.582;13.408;2023-04-21T09:47:23;16.80;99.90
22139;DHT22;25815;52.582;13.408;2023-04-21T09:49:51;16.80;99.90
22139;DHT22;25815;52.582;13.408;2023-04-21T09:52:18;16.90;99.90
22139;DHT22;25815;52.582;13.408;2023-04-21T09:54:51;17.00;99.90
22139;DHT22;25815;52.582;13.408;2023-04-21T09:57:24;17.10;99.90
22139;DHT22;25815;52.582;13.408;2023-04-21T10:00:11;17.10;99.90
22139;DHT22;25815;52.582;13.408;2023-04-21T10:02:50;17.20;99.90
22139;DHT22;25815;52.582;13.408;2023-04-21T10:05:17;17.20;99.90
22139;DHT22;25815;52.582;13.408;2023-04-21T10:07:46;17.30;99.90
22139;DHT22;25815;52.582;13.408;2023-04-21T10:10:20;17.40;99.90
22139;DHT22;25815;52.582;13.408;2023-04-21T10:12:47;17.70;99.90
22139;DHT22;25815;52.582;13.408;2023-04-21T10:15:38;18.10;99.90
22139;DHT22;25815;52.582;13.408;2023-04-21T10:18:30;18.50;99.90
22139;DHT22;25815;52.582;13.408;2023-04-21T10:20:57;18.60;99.90
22139;DHT22;25815;52.582;13.408;2023-04-21T10:25:51;19.30;99.90
22139;DHT22;25815;52.582;13.408;2023-04-21T10:28:17;19.60;99.90
22139;DHT22;25815;52.582;13.408;2023-04-21T10:30:43;20.00;99.90
22139;DHT22;25815;52.582;13.408;2023-04-21T10:33:08;20.10;99.90
22139;DHT22;25815;52.582;13.408;2023-04-21T10:36:06;20.40;99.90
22139;DHT22;25815;52.582;13.408;2023-04-21T10:38:43;20.40;99.90
22139;DHT22;25815;52.582;13.408;2023-04-21T10:43:53;20.50;99.90
22139;DHT22;25815;52.582;13.408;2023-04-21T10:46:47;20.50;99.90
22139;DHT22;25815;52.582;13.408;2023-04-21T10:49:29;20.50;99.90
22139;DHT22;25815;52.582;13.408;2023-04-21T10:54:24;20.40;99.90
22139;DHT22;25815;52.582;13.408;2023-04-21T10:56:51;20.20;99.90
22139;DHT22;25815;52.582;13.408;2023-04-21T10:59:18;20.20;99.90
22139;DHT22;25815;52.582;13.408;2023-04-21T11:01:43;20.10;99.90
22139;DHT22;25815;52.582;13.408;2023-04-21T11:04:16;20.20;99.90
22139;DHT22;25815;52.582;13.408;2023-04-21T11:06:42;20.10;99.90
22139;DHT22;25815;52.582;13.408;2023-04-21T11:09:07;20.20;99.90
22139;DHT22;25815;52.582;13.408;2023-04-21T11:11:34;20.20;99.90
22139;DHT22;25815;52.582;13.408;2023-04-21T11:14:04;20.30;99.90
22139;DHT22;25815;52.582;13.408;2023-04-21T11:16:29;20.40;99.90
22139;DHT22;25815;52.582;13.408;2023-04-21T11:18:55;20.40;99.90
22139;DHT22;25815;52.582;13.408;2023-04-21T11:21:21;20.60;99.90
22139;DHT22;25815;52.582;13.408;2023-04-21T11:23:56;20.60;99.90
22139;DHT22;25815;52.582;13.408;2023-04-21T11:26:32;20.70;99.90
22139;DHT22;25815;52.582;13.408;2023-04-21T11:29:04;20.70;99.90
22139;DHT22;25815;52.582;13.408;2023-04-21T11:31:31;20.90;99.90
22139;DHT22;25815;52.582;13.408;2023-04-21T11:34:00;20.90;99.90
22139;DHT22;25815;52.582;13.408;2023-04-21T11:36:26;21.00;99.90
